createdAt,value
2023-03-20T00:01:21.582Z,95438.69
2023-03-20T00:03:48.366Z,95437.03
2023-03-20T00:06:17.547Z,95437.22
2023-03-20T00:08:45.949Z,95440.16
2023-03-20T00:11:28.713Z,95438.38
2023-03-20T00:13:57.574Z,95440.19
2023-03-20T00:16:27.092Z,95441.31
2023-03-20T00:18:53.678Z,95441.78
2023-03-20T00:21:20.406Z,95437.88
2023-03-20T00:23:47.729Z,95438.16
2023-03-20T00:26:18.244Z,95445.22
2023-03-20T00:28:47.914Z,95437.03
2023-03-20T00:31:47.189Z,95438.47
2023-03-20T00:34:17.225Z,95433.03
2023-03-20T00:36:46.358Z,95433.53
2023-03-20T00:39:13.064Z,95436.38
2023-03-20T00:41:39.542Z,95437.69
2023-03-20T00:44:15.182Z,95434.91
2023-03-20T00:46:41.888Z,95436.53
2023-03-20T00:49:11.791Z,95434.56
2023-03-20T00:51:39.656Z,95440.47
2023-03-20T00:54:13.214Z,95436.53
2023-03-20T00:56:46.260Z,95432.44
2023-03-20T00:59:22.588Z,95435.88
2023-03-20T01:01:49.284Z,95435.41
2023-03-20T01:04:19.288Z,95433.91
2023-03-20T01:06:45.926Z,95438.00
2023-03-20T01:09:12.910Z,95429.34
2023-03-20T01:11:40.974Z,95434.41
2023-03-20T01:14:14.671Z,95441.16
2023-03-20T01:16:41.594Z,95433.25
2023-03-20T01:19:12.887Z,95436.53
2023-03-20T01:21:39.516Z,95441.31
2023-03-20T01:24:06.418Z,95436.06
2023-03-20T01:26:39.086Z,95439.28
2023-03-20T01:29:20.741Z,95438.66
2023-03-20T01:31:48.368Z,95438.84
2023-03-20T01:34:16.675Z,95438.84
2023-03-20T01:36:53.323Z,95444.44
2023-03-20T01:39:32.180Z,95439.53
2023-03-20T01:41:59.493Z,95444.09
2023-03-20T01:44:34.484Z,95439.16
2023-03-20T01:47:03.007Z,95445.44
2023-03-20T01:49:29.734Z,95439.50
2023-03-20T01:52:01.108Z,95442.47
2023-03-20T01:54:38.887Z,95434.09
2023-03-20T01:57:13.434Z,95440.50
2023-03-20T02:00:05.551Z,95432.63
2023-03-20T02:02:44.452Z,95434.22
2023-03-20T02:05:17.708Z,95435.06
2023-03-20T02:07:51.023Z,95435.25
2023-03-20T02:10:19.006Z,95434.59
2023-03-20T02:12:55.583Z,95435.38
2023-03-20T02:16:07.542Z,95436.72
2023-03-20T02:18:56.597Z,95434.59
2023-03-20T02:21:33.121Z,95435.56
2023-03-20T02:24:33.955Z,95426.84
2023-03-20T02:27:33.327Z,95428.00
2023-03-20T02:30:42.909Z,95428.81
2023-03-20T02:33:09.581Z,95430.63
2023-03-20T02:36:02.989Z,95435.06
2023-03-20T02:38:54.436Z,95437.53
2023-03-20T02:41:26.960Z,95435.06
2023-03-20T02:44:03.574Z,95436.56
2023-03-20T02:46:55.002Z,95432.09
2023-03-20T02:49:30.326Z,95431.97
2023-03-20T02:52:16.854Z,95434.41
2023-03-20T02:54:47.518Z,95438.00
2023-03-20T02:57:36.372Z,95426.19
2023-03-20T03:00:10.354Z,95424.72
2023-03-20T03:02:47.145Z,95433.75
2023-03-20T03:05:21.603Z,95438.84
2023-03-20T03:07:52.026Z,95438.50
2023-03-20T03:10:30.302Z,95434.41
2023-03-20T03:12:58.739Z,95436.38
2023-03-20T03:15:34.514Z,95433.91
2023-03-20T03:18:05.204Z,95431.13
2023-03-20T03:20:35.959Z,95437.69
2023-03-20T03:23:03.877Z,95431.63
2023-03-20T03:25:35.048Z,95427.84
2023-03-20T03:28:25.274Z,95439.16
2023-03-20T03:30:53.763Z,95442.16
2023-03-20T03:33:27.203Z,95441.97
2023-03-20T03:36:05.603Z,95443.94
2023-03-20T03:38:58.514Z,95449.84
2023-03-20T03:41:35.048Z,95452.50
2023-03-20T03:44:07.670Z,95453.16
2023-03-20T03:47:11.528Z,95453.13
2023-03-20T03:49:46.033Z,95455.13
2023-03-20T03:52:17.375Z,95455.94
2023-03-20T03:55:07.625Z,95460.22
2023-03-20T03:57:49.310Z,95454.94
2023-03-20T04:00:21.884Z,95461.69
2023-03-20T04:02:53.426Z,95467.41
2023-03-20T04:05:21.496Z,95462.81
2023-03-20T04:07:53.083Z,95462.16
2023-03-20T04:10:19.655Z,95473.19
2023-03-20T04:12:46.289Z,95476.66
2023-03-20T04:15:14.549Z,95476.94
2023-03-20T04:17:41.798Z,95477.47
2023-03-20T04:20:10.758Z,95482.22
2023-03-20T04:22:37.289Z,95478.94
2023-03-20T04:25:09.261Z,95476.66
2023-03-20T04:27:36.005Z,95488.63
2023-03-20T04:30:11.261Z,95490.44
2023-03-20T04:32:57.335Z,95493.38
2023-03-20T04:35:32.109Z,95497.94
2023-03-20T04:38:03.714Z,95493.19
2023-03-20T04:40:32.927Z,95498.28
2023-03-20T04:42:59.482Z,95492.34
2023-03-20T04:45:26.308Z,95503.38
2023-03-20T04:47:53.019Z,95494.47
2023-03-20T04:50:21.664Z,95498.91
2023-03-20T04:52:50.214Z,95504.97
2023-03-20T04:55:16.868Z,95499.03
2023-03-20T04:57:43.627Z,95500.50
2023-03-20T05:00:12.207Z,95502.44
2023-03-20T05:02:38.796Z,95498.44
2023-03-20T05:05:05.741Z,95504.34
2023-03-20T05:07:35.317Z,95505.97
2023-03-20T05:10:07.012Z,95504.41
2023-03-20T05:12:42.808Z,95503.06
2023-03-20T05:15:27.227Z,95508.84
2023-03-20T05:18:14.106Z,95513.28
2023-03-20T05:20:59.374Z,95512.47
2023-03-20T05:23:46.176Z,95515.59
2023-03-20T05:26:32.180Z,95517.22
2023-03-20T05:29:15.424Z,95519.38
2023-03-20T05:31:48.115Z,95517.75
2023-03-20T05:34:25.926Z,95527.78
2023-03-20T05:37:01.191Z,95526.28
2023-03-20T05:40:03.542Z,95528.53
2023-03-20T05:42:36.247Z,95530.91
2023-03-20T05:45:15.551Z,95533.50
2023-03-20T05:47:44.790Z,95543.03
2023-03-20T05:50:14.338Z,95541.94
2023-03-20T05:52:53.620Z,95533.66
2023-03-20T05:55:23.944Z,95541.13
2023-03-20T05:58:09.399Z,95545.03
2023-03-20T06:01:02.310Z,95550.97
2023-03-20T06:03:56.840Z,95553.50
2023-03-20T06:06:48.146Z,95554.50
2023-03-20T06:09:14.897Z,95558.97
2023-03-20T06:11:41.545Z,95564.53
2023-03-20T06:14:08.352Z,95559.28
2023-03-20T06:16:38.457Z,95568.63
2023-03-20T06:19:05.516Z,95569.91
2023-03-20T06:21:32.552Z,95578.00
2023-03-20T06:23:59.927Z,95573.28
2023-03-20T06:26:28.015Z,95574.97
2023-03-20T06:29:01.782Z,95580.13
2023-03-20T06:31:28.537Z,95582.78
2023-03-20T06:33:55.487Z,95589.91
2023-03-20T06:36:22.383Z,95580.94
2023-03-20T06:38:53.424Z,95592.66
2023-03-20T06:41:33.709Z,95589.47
2023-03-20T06:44:03.661Z,95585.94
2023-03-20T06:46:50.476Z,95582.22
2023-03-20T06:49:17.089Z,95582.69
2023-03-20T06:51:45.231Z,95577.81
2023-03-20T06:54:11.860Z,95582.25
2023-03-20T06:56:38.410Z,95583.72
2023-03-20T06:59:05.013Z,95584.31
2023-03-20T07:01:31.908Z,95581.94
2023-03-20T07:03:59.077Z,95577.09
2023-03-20T07:06:30.949Z,95576.47
2023-03-20T07:08:58.138Z,95580.72
2023-03-20T07:11:24.928Z,95581.69
2023-03-20T07:13:54.094Z,95585.31
2023-03-20T07:16:31.282Z,95587.53
2023-03-20T07:18:57.992Z,95592.84
2023-03-20T07:21:25.561Z,95600.63
2023-03-20T07:23:53.750Z,95599.69
2023-03-20T07:26:20.660Z,95605.94
2023-03-20T07:28:47.232Z,95608.09
2023-03-20T07:31:25.829Z,95608.59
2023-03-20T07:34:01.148Z,95610.41
2023-03-20T07:36:27.762Z,95617.31
2023-03-20T07:38:54.286Z,95620.28
2023-03-20T07:41:20.842Z,95624.22
2023-03-20T07:43:58.467Z,95617.97
2023-03-20T07:46:54.557Z,95624.56
2023-03-20T07:49:23.098Z,95633.25
2023-03-20T07:51:50.772Z,95632.63
2023-03-20T07:54:17.765Z,95636.91
2023-03-20T07:56:44.336Z,95629.16
2023-03-20T07:59:11.887Z,95625.53
2023-03-20T08:01:38.480Z,95620.28
2023-03-20T08:04:05.911Z,95625.53
2023-03-20T08:06:32.548Z,95621.41
2023-03-20T08:08:59.509Z,95630.31
2023-03-20T08:11:26.350Z,95632.47
2023-03-20T08:13:52.889Z,95631.63
2023-03-20T08:16:19.509Z,95633.28
2023-03-20T08:18:46.221Z,95626.19
2023-03-20T08:21:12.863Z,95629.84
2023-03-20T08:23:39.423Z,95631.63
2023-03-20T08:26:06.036Z,95627.66
2023-03-20T08:28:46.541Z,95624.53
2023-03-20T08:31:15.280Z,95621.44
2023-03-20T08:33:41.891Z,95620.56
2023-03-20T08:36:08.691Z,95608.97
2023-03-20T08:38:35.878Z,95609.88
2023-03-20T08:41:02.906Z,95610.25
2023-03-20T08:43:29.806Z,95607.81
2023-03-20T08:45:56.459Z,95604.88
2023-03-20T08:48:23.216Z,95608.97
2023-03-20T08:50:49.828Z,95602.75
2023-03-20T08:53:16.590Z,95598.00
2023-03-20T08:55:51.185Z,95606.69
2023-03-20T08:58:18.705Z,95604.84
2023-03-20T09:00:45.527Z,95602.66
2023-03-20T09:03:14.729Z,95602.09
2023-03-20T09:05:43.936Z,95603.38
2023-03-20T09:08:10.560Z,95607.25
2023-03-20T09:10:37.603Z,95604.88
2023-03-20T09:13:19.567Z,95602.19
2023-03-20T09:15:51.473Z,95604.13
2023-03-20T09:18:19.806Z,95606.53
2023-03-20T09:20:47.872Z,95605.38
2023-03-20T09:23:14.418Z,95610.38
2023-03-20T09:25:40.979Z,95612.66
2023-03-20T09:28:07.654Z,95607.06
2023-03-20T09:30:34.660Z,95613.09
2023-03-20T09:33:01.409Z,95612.38
2023-03-20T09:35:28.210Z,95615.34
2023-03-20T09:37:54.840Z,95614.19
2023-03-20T09:40:33.886Z,95609.97
2023-03-20T09:43:28.087Z,95609.31
2023-03-20T09:46:11.339Z,95610.16
2023-03-20T09:48:44.165Z,95603.03
2023-03-20T09:51:41.404Z,95604.13
2023-03-20T09:54:22.645Z,95613.28
2023-03-20T09:56:51.172Z,95611.91
2023-03-20T09:59:20.278Z,95606.13
2023-03-20T10:01:57.227Z,95609.03
2023-03-20T10:04:29.230Z,95601.22
2023-03-20T10:06:56.762Z,95602.09
2023-03-20T10:09:25.799Z,95604.25
2023-03-20T10:12:06.589Z,95597.13
2023-03-20T10:15:10.645Z,95602.84
2023-03-20T10:18:03.600Z,95601.81
2023-03-20T10:20:36.288Z,95601.16
2023-03-20T10:23:18.314Z,95608.06
2023-03-20T10:25:50.981Z,95600.63
2023-03-20T10:28:23.925Z,95604.88
2023-03-20T10:31:13.546Z,95602.59
2023-03-20T10:33:58.908Z,95588.53
2023-03-20T10:36:36.032Z,95586.25
2023-03-20T10:39:35.375Z,95589.91
2023-03-20T10:42:04.242Z,95585.25
2023-03-20T10:44:40.731Z,95589.75
2023-03-20T10:47:11.649Z,95584.50
2023-03-20T10:49:48.951Z,95579.19
2023-03-20T10:52:22.945Z,95583.59
2023-03-20T10:54:57.960Z,95576.78
2023-03-20T10:57:27.786Z,95566.16
2023-03-20T10:59:58.338Z,95570.31
2023-03-20T11:02:30.622Z,95573.53
2023-03-20T11:05:00.016Z,95559.53
2023-03-20T11:07:37.975Z,95560.13
2023-03-20T11:10:07.937Z,95562.75
2023-03-20T11:12:42.991Z,95559.31
2023-03-20T11:15:33.176Z,95566.47
2023-03-20T11:18:05.546Z,95560.09
2023-03-20T11:20:56.313Z,95558.84
2023-03-20T11:23:30.107Z,95559.19
2023-03-20T11:26:04.534Z,95560.50
2023-03-20T11:28:41.767Z,95554.59
2023-03-20T11:31:11.481Z,95554.84
2023-03-20T11:33:41.037Z,95557.44
2023-03-20T11:36:30.060Z,95557.06
2023-03-20T11:39:16.781Z,95558.38
2023-03-20T11:41:49.953Z,95557.81
2023-03-20T11:44:33.005Z,95546.16
2023-03-20T11:47:03.563Z,95545.25
2023-03-20T11:49:45.698Z,95539.97
2023-03-20T11:52:16.839Z,95539.38
2023-03-20T11:54:49.904Z,95533.75
2023-03-20T11:57:40.044Z,95535.31
2023-03-20T12:00:22.973Z,95534.31
2023-03-20T12:02:50.655Z,95537.59
2023-03-20T12:05:30.045Z,95536.09
2023-03-20T12:08:10.287Z,95538.16
2023-03-20T12:10:42.355Z,95536.28
2023-03-20T12:13:22.437Z,95537.63
2023-03-20T12:16:21.467Z,95533.75
2023-03-20T12:18:52.328Z,95544.47
2023-03-20T12:21:38.992Z,95544.59
2023-03-20T12:24:15.017Z,95545.59
2023-03-20T12:27:00.904Z,95538.97
2023-03-20T12:29:31.963Z,95543.25
2023-03-20T12:32:04.890Z,95538.41
2023-03-20T12:34:55.548Z,95540.75
2023-03-20T12:37:22.700Z,95532.63
2023-03-20T12:40:01.291Z,95530.16
2023-03-20T12:43:00.136Z,95544.84
2023-03-20T12:45:44.978Z,95534.84
2023-03-20T12:48:47.572Z,95524.16
2023-03-20T12:51:40.593Z,95525.00
2023-03-20T12:54:44.880Z,95534.28
2023-03-20T12:57:30.877Z,95539.13
2023-03-20T13:00:08.096Z,95529.09
2023-03-20T13:02:54.176Z,95536.47
2023-03-20T13:05:20.839Z,95540.03
2023-03-20T13:07:47.334Z,95539.28
2023-03-20T13:10:28.737Z,95536.28
2023-03-20T13:13:00.000Z,95539.50
2023-03-20T13:15:52.552Z,95529.34
2023-03-20T13:18:39.459Z,95526.56
2023-03-20T13:21:12.230Z,95522.56
2023-03-20T13:24:06.817Z,95517.66
2023-03-20T13:26:41.565Z,95507.78
2023-03-20T13:29:38.725Z,95511.06
2023-03-20T13:32:35.892Z,95501.09
2023-03-20T13:35:25.507Z,95511.19
2023-03-20T13:37:56.233Z,95505.00
2023-03-20T13:40:37.920Z,95511.75
2023-03-20T13:43:16.842Z,95505.63
2023-03-20T13:45:43.710Z,95502.34
2023-03-20T13:48:46.192Z,95497.50
2023-03-20T13:51:27.778Z,95501.84
2023-03-20T13:54:12.808Z,95501.09
2023-03-20T13:56:58.091Z,95496.34
2023-03-20T13:59:36.454Z,95496.41
2023-03-20T14:02:24.465Z,95490.84
2023-03-20T14:04:57.795Z,95487.19
2023-03-20T14:07:38.952Z,95491.22
2023-03-20T14:10:20.745Z,95494.94
2023-03-20T14:12:55.303Z,95486.13
2023-03-20T14:15:26.253Z,95490.81
2023-03-20T14:17:52.932Z,95493.38
2023-03-20T14:20:38.967Z,95486.38
2023-03-20T14:23:06.430Z,95485.94
2023-03-20T14:25:41.767Z,95475.69
2023-03-20T14:28:11.231Z,95471.28
2023-03-20T14:30:45.837Z,95469.44
2023-03-20T14:33:15.821Z,95466.03
2023-03-20T14:35:50.270Z,95472.06
2023-03-20T14:38:45.144Z,95471.34
2023-03-20T14:41:37.999Z,95463.31
2023-03-20T14:44:27.160Z,95466.25
2023-03-20T14:47:24.522Z,95465.06
2023-03-20T14:50:07.070Z,95462.41
2023-03-20T14:52:38.918Z,95464.88
2023-03-20T14:55:17.744Z,95464.50
2023-03-20T14:57:55.762Z,95469.13
2023-03-20T15:00:29.745Z,95458.25
2023-03-20T15:03:05.873Z,95463.22
